sensor_id;sensor_type;location;lat;lon;timestamp;P1;durP1;ratioP1;P2;durP2;ratioP2
2766;SDS011;1391;46.742;11.636;2023-02-03T00:00:52;5.33;;;2.77;;
2766;SDS011;1391;46.742;11.636;2023-02-03T00:03:19;5.80;;;2.87;;
2766;SDS011;1391;46.742;11.636;2023-02-03T00:05:46;4.33;;;2.40;;
2766;SDS011;1391;46.742;11.636;2023-02-03T00:08:14;1.93;;;1.27;;
2766;SDS011;1391;46.742;11.636;2023-02-03T00:10:45;0.63;;;0.60;;
2766;SDS011;1391;46.742;11.636;2023-02-03T00:13:12;0.40;;;0.40;;
2766;SDS011;1391;46.742;11.636;2023-02-03T00:15:40;0.60;;;0.60;;
2766;SDS011;1391;46.742;11.636;2023-02-03T00:18:07;0.40;;;0.40;;
2766;SDS011;1391;46.742;11.636;2023-02-03T00:20:34;0.40;;;0.40;;
2766;SDS011;1391;46.742;11.636;2023-02-03T00:23:02;1.13;;;0.60;;
2766;SDS011;1391;46.742;11.636;2023-02-03T00:25:30;1.67;;;0.93;;
2766;SDS011;1391;46.742;11.636;2023-02-03T00:27:59;0.63;;;0.63;;
2766;SDS011;1391;46.742;11.636;2023-02-03T00:30:27;0.43;;;0.43;;
2766;SDS011;1391;46.742;11.636;2023-02-03T00:32:55;0.50;;;0.50;;
2766;SDS011;1391;46.742;11.636;2023-02-03T00:35:22;0.50;;;0.50;;
2766;SDS011;1391;46.742;11.636;2023-02-03T00:37:50;0.50;;;0.50;;
2766;SDS011;1391;46.742;11.636;2023-02-03T00:40:18;0.50;;;0.50;;
2766;SDS011;1391;46.742;11.636;2023-02-03T00:42:47;0.57;;;0.47;;
2766;SDS011;1391;46.742;11.636;2023-02-03T00:45:16;0.40;;;0.40;;
2766;SDS011;1391;46.742;11.636;2023-02-03T00:47:43;0.30;;;0.30;;
2766;SDS011;1391;46.742;11.636;2023-02-03T00:50:11;1.37;;;0.70;;
2766;SDS011;1391;46.742;11.636;2023-02-03T00:52:39;1.20;;;0.70;;
2766;SDS011;1391;46.742;11.636;2023-02-03T00:55:06;0.63;;;0.63;;
2766;SDS011;1391;46.742;11.636;2023-02-03T00:57:36;0.50;;;0.50;;
2766;SDS011;1391;46.742;11.636;2023-02-03T01:00:04;3.27;;;1.00;;
2766;SDS011;1391;46.742;11.636;2023-02-03T01:02:34;0.70;;;0.70;;
2766;SDS011;1391;46.742;11.636;2023-02-03T01:05:01;0.60;;;0.60;;
2766;SDS011;1391;46.742;11.636;2023-02-03T01:07:30;0.80;;;0.80;;
2766;SDS011;1391;46.742;11.636;2023-02-03T01:09:57;1.20;;;0.60;;
2766;SDS011;1391;46.742;11.636;2023-02-03T01:12:24;1.13;;;0.83;;
2766;SDS011;1391;46.742;11.636;2023-02-03T01:14:54;0.50;;;0.50;;
2766;SDS011;1391;46.742;11.636;2023-02-03T01:17:21;0.50;;;0.50;;
2766;SDS011;1391;46.742;11.636;2023-02-03T01:19:50;0.57;;;0.57;;
2766;SDS011;1391;46.742;11.636;2023-02-03T01:22:18;1.20;;;0.40;;
2766;SDS011;1391;46.742;11.636;2023-02-03T01:24:45;0.70;;;0.70;;
2766;SDS011;1391;46.742;11.636;2023-02-03T01:27:12;0.80;;;0.77;;
2766;SDS011;1391;46.742;11.636;2023-02-03T01:29:39;0.60;;;0.60;;
2766;SDS011;1391;46.742;11.636;2023-02-03T01:32:09;0.57;;;0.57;;
2766;SDS011;1391;46.742;11.636;2023-02-03T01:34:36;1.10;;;0.60;;
2766;SDS011;1391;46.742;11.636;2023-02-03T01:37:05;2.10;;;0.90;;
2766;SDS011;1391;46.742;11.636;2023-02-03T01:39:32;1.93;;;0.77;;
2766;SDS011;1391;46.742;11.636;2023-02-03T01:42:02;0.50;;;0.50;;
2766;SDS011;1391;46.742;11.636;2023-02-03T01:44:38;0.43;;;0.43;;
2766;SDS011;1391;46.742;11.636;2023-02-03T01:50:02;0.77;;;0.77;;
2766;SDS011;1391;46.742;11.636;2023-02-03T01:52:38;0.80;;;0.80;;
2766;SDS011;1391;46.742;11.636;2023-02-03T01:55:12;0.90;;;0.90;;
2766;SDS011;1391;46.742;11.636;2023-02-03T01:57:43;0.67;;;0.67;;
2766;SDS011;1391;46.742;11.636;2023-02-03T02:00:16;0.70;;;0.70;;
2766;SDS011;1391;46.742;11.636;2023-02-03T02:02:44;0.83;;;0.83;;
2766;SDS011;1391;46.742;11.636;2023-02-03T02:05:14;0.70;;;0.50;;
2766;SDS011;1391;46.742;11.636;2023-02-03T02:07:47;0.77;;;0.67;;
2766;SDS011;1391;46.742;11.636;2023-02-03T02:10:15;0.50;;;0.50;;
2766;SDS011;1391;46.742;11.636;2023-02-03T02:12:43;0.40;;;0.40;;
2766;SDS011;1391;46.742;11.636;2023-02-03T02:15:10;0.20;;;0.20;;
2766;SDS011;1391;46.742;11.636;2023-02-03T02:17:46;0.50;;;0.50;;
2766;SDS011;1391;46.742;11.636;2023-02-03T02:20:37;0.40;;;0.40;;
2766;SDS011;1391;46.742;11.636;2023-02-03T02:26:37;0.40;;;0.40;;
2766;SDS011;1391;46.742;11.636;2023-02-03T02:32:33;1.03;;;0.60;;
2766;SDS011;1391;46.742;11.636;2023-02-03T02:35:14;1.80;;;0.97;;
2766;SDS011;1391;46.742;11.636;2023-02-03T02:37:49;2.43;;;1.00;;
2766;SDS011;1391;46.742;11.636;2023-02-03T02:40:25;0.80;;;0.80;;
2766;SDS011;1391;46.742;11.636;2023-02-03T02:43:03;0.87;;;0.67;;
2766;SDS011;1391;46.742;11.636;2023-02-03T02:45:38;0.90;;;0.87;;
2766;SDS011;1391;46.742;11.636;2023-02-03T02:48:16;1.20;;;1.10;;
2766;SDS011;1391;46.742;11.636;2023-02-03T02:50:50;0.70;;;0.70;;
2766;SDS011;1391;46.742;11.636;2023-02-03T02:53:22;0.70;;;0.70;;
2766;SDS011;1391;46.742;11.636;2023-02-03T02:55:53;0.60;;;0.60;;
2766;SDS011;1391;46.742;11.636;2023-02-03T02:58:22;0.70;;;0.70;;
2766;SDS011;1391;46.742;11.636;2023-02-03T03:00:52;1.43;;;1.00;;
2766;SDS011;1391;46.742;11.636;2023-02-03T03:03:22;0.60;;;0.60;;
2766;SDS011;1391;46.742;11.636;2023-02-03T03:05:50;0.90;;;0.90;;
2766;SDS011;1391;46.742;11.636;2023-02-03T03:08:22;0.80;;;0.70;;
2766;SDS011;1391;46.742;11.636;2023-02-03T03:10:54;1.33;;;0.90;;
2766;SDS011;1391;46.742;11.636;2023-02-03T03:13:24;1.70;;;1.23;;
2766;SDS011;1391;46.742;11.636;2023-02-03T03:15:58;0.90;;;0.70;;
2766;SDS011;1391;46.742;11.636;2023-02-03T03:18:32;3.27;;;1.57;;
2766;SDS011;1391;46.742;11.636;2023-02-03T03:21:02;1.43;;;1.13;;
2766;SDS011;1391;46.742;11.636;2023-02-03T03:23:33;1.33;;;1.23;;
2766;SDS011;1391;46.742;11.636;2023-02-03T03:26:08;1.20;;;1.07;;
2766;SDS011;1391;46.742;11.636;2023-02-03T03:28:41;1.90;;;1.27;;
2766;SDS011;1391;46.742;11.636;2023-02-03T03:31:14;1.47;;;0.90;;
2766;SDS011;1391;46.742;11.636;2023-02-03T03:33:44;1.57;;;1.10;;
2766;SDS011;1391;46.742;11.636;2023-02-03T03:36:15;1.07;;;1.00;;
2766;SDS011;1391;46.742;11.636;2023-02-03T03:38:51;1.77;;;0.90;;
2766;SDS011;1391;46.742;11.636;2023-02-03T03:41:26;2.40;;;1.70;;
2766;SDS011;1391;46.742;11.636;2023-02-03T03:44:02;2.27;;;1.57;;
2766;SDS011;1391;46.742;11.636;2023-02-03T03:46:37;2.33;;;1.50;;
2766;SDS011;1391;46.742;11.636;2023-02-03T03:49:11;1.83;;;1.30;;
2766;SDS011;1391;46.742;11.636;2023-02-03T03:51:41;1.60;;;1.40;;
2766;SDS011;1391;46.742;11.636;2023-02-03T03:54:14;1.50;;;1.40;;
2766;SDS011;1391;46.742;11.636;2023-02-03T03:56:45;1.50;;;1.40;;
2766;SDS011;1391;46.742;11.636;2023-02-03T03:59:18;3.00;;;1.50;;
2766;SDS011;1391;46.742;11.636;2023-02-03T04:01:47;4.17;;;1.60;;
2766;SDS011;1391;46.742;11.636;2023-02-03T04:04:17;2.57;;;1.63;;
2766;SDS011;1391;46.742;11.636;2023-02-03T04:06:46;1.43;;;1.33;;
2766;SDS011;1391;46.742;11.636;2023-02-03T04:09:13;2.53;;;1.50;;
2766;SDS011;1391;46.742;11.636;2023-02-03T04:11:41;1.57;;;1.20;;
2766;SDS011;1391;46.742;11.636;2023-02-03T04:14:27;1.23;;;1.10;;
2766;SDS011;1391;46.742;11.636;2023-02-03T04:16:55;2.40;;;1.40;;
2766;SDS011;1391;46.742;11.636;2023-02-03T04:19:24;1.57;;;1.27;;
2766;SDS011;1391;46.742;11.636;2023-02-03T04:21:51;1.73;;;1.60;;
2766;SDS011;1391;46.742;11.636;2023-02-03T04:24:18;2.00;;;1.27;;
2766;SDS011;1391;46.742;11.636;2023-02-03T04:26:46;2.20;;;1.20;;
2766;SDS011;1391;46.742;11.636;2023-02-03T04:29:13;1.33;;;1.23;;
2766;SDS011;1391;46.742;11.636;2023-02-03T04:31:40;7.70;;;1.10;;
2766;SDS011;1391;46.742;11.636;2023-02-03T04:34:07;1.00;;;1.00;;
2766;SDS011;1391;46.742;11.636;2023-02-03T04:36:36;1.60;;;1.50;;
2766;SDS011;1391;46.742;11.636;2023-02-03T04:39:03;2.30;;;1.50;;
2766;SDS011;1391;46.742;11.636;2023-02-03T04:41:30;2.77;;;1.10;;
2766;SDS011;1391;46.742;11.636;2023-02-03T04:43:58;1.13;;;1.03;;
2766;SDS011;1391;46.742;11.636;2023-02-03T04:46:25;1.60;;;1.10;;
2766;SDS011;1391;46.742;11.636;2023-02-03T04:48:52;1.17;;;1.07;;
2766;SDS011;1391;46.742;11.636;2023-02-03T04:51:19;1.13;;;1.10;;
2766;SDS011;1391;46.742;11.636;2023-02-03T04:53:48;1.77;;;1.57;;
2766;SDS011;1391;46.742;11.636;2023-02-03T04:56:15;1.20;;;1.10;;
2766;SDS011;1391;46.742;11.636;2023-02-03T04:58:42;1.30;;;1.20;;
2766;SDS011;1391;46.742;11.636;2023-02-03T05:01:09;2.20;;;1.30;;
2766;SDS011;1391;46.742;11.636;2023-02-03T05:03:37;1.27;;;1.17;;
2766;SDS011;1391;46.742;11.636;2023-02-03T05:06:04;1.43;;;1.33;;
2766;SDS011;1391;46.742;11.636;2023-02-03T05:08:31;1.43;;;1.30;;
2766;SDS011;1391;46.742;11.636;2023-02-03T05:11:00;1.50;;;1.40;;
2766;SDS011;1391;46.742;11.636;2023-02-03T05:13:27;1.87;;;1.50;;
2766;SDS011;1391;46.742;11.636;2023-02-03T05:15:55;1.47;;;1.37;;
2766;SDS011;1391;46.742;11.636;2023-02-03T05:18:22;2.20;;;1.60;;
2766;SDS011;1391;46.742;11.636;2023-02-03T05:20:49;1.80;;;1.63;;
2766;SDS011;1391;46.742;11.636;2023-02-03T05:23:16;2.53;;;1.63;;
2766;SDS011;1391;46.742;11.636;2023-02-03T05:25:43;2.60;;;1.87;;
2766;SDS011;1391;46.742;11.636;2023-02-03T05:28:12;1.67;;;1.53;;
2766;SDS011;1391;46.742;11.636;2023-02-03T05:30:39;1.70;;;1.43;;
2766;SDS011;1391;46.742;11.636;2023-02-03T05:33:06;2.10;;;1.60;;
2766;SDS011;1391;46.742;11.636;2023-02-03T05:35:34;1.97;;;1.77;;
2766;SDS011;1391;46.742;11.636;2023-02-03T05:38:01;1.73;;;1.30;;
2766;SDS011;1391;46.742;11.636;2023-02-03T05:40:29;2.00;;;1.80;;
2766;SDS011;1391;46.742;11.636;2023-02-03T05:43:15;2.13;;;1.73;;
2766;SDS011;1391;46.742;11.636;2023-02-03T05:45:42;1.80;;;1.70;;
2766;SDS011;1391;46.742;11.636;2023-02-03T05:48:10;2.30;;;1.60;;
2766;SDS011;1391;46.742;11.636;2023-02-03T05:50:37;2.03;;;1.80;;
2766;SDS011;1391;46.742;11.636;2023-02-03T05:53:05;3.63;;;1.50;;
2766;SDS011;1391;46.742;11.636;2023-02-03T05:55:33;1.83;;;1.60;;
2766;SDS011;1391;46.742;11.636;2023-02-03T05:58:02;1.50;;;1.40;;
2766;SDS011;1391;46.742;11.636;2023-02-03T06:00:31;2.63;;;2.17;;
2766;SDS011;1391;46.742;11.636;2023-02-03T06:02:59;2.50;;;1.97;;
2766;SDS011;1391;46.742;11.636;2023-02-03T06:05:28;2.77;;;2.00;;
2766;SDS011;1391;46.742;11.636;2023-02-03T06:07:57;2.87;;;2.10;;
2766;SDS011;1391;46.742;11.636;2023-02-03T06:10:24;3.50;;;2.40;;
2766;SDS011;1391;46.742;11.636;2023-02-03T06:12:53;2.97;;;2.33;;
2766;SDS011;1391;46.742;11.636;2023-02-03T06:15:20;2.83;;;2.37;;
2766;SDS011;1391;46.742;11.636;2023-02-03T06:17:49;4.97;;;2.90;;
2766;SDS011;1391;46.742;11.636;2023-02-03T06:20:17;2.47;;;1.80;;
2766;SDS011;1391;46.742;11.636;2023-02-03T06:22:45;2.20;;;1.80;;
2766;SDS011;1391;46.742;11.636;2023-02-03T06:25:12;2.83;;;1.93;;
2766;SDS011;1391;46.742;11.636;2023-02-03T06:27:39;2.80;;;1.90;;
2766;SDS011;1391;46.742;11.636;2023-02-03T06:30:07;1.50;;;1.40;;
2766;SDS011;1391;46.742;11.636;2023-02-03T06:32:36;2.50;;;1.80;;
2766;SDS011;1391;46.742;11.636;2023-02-03T06:35:05;2.17;;;1.60;;
2766;SDS011;1391;46.742;11.636;2023-02-03T06:37:33;2.20;;;1.80;;
2766;SDS011;1391;46.742;11.636;2023-02-03T06:40:01;1.57;;;1.30;;
2766;SDS011;1391;46.742;11.636;2023-02-03T06:42:30;1.67;;;1.57;;
2766;SDS011;1391;46.742;11.636;2023-02-03T06:44:57;1.60;;;1.50;;
2766;SDS011;1391;46.742;11.636;2023-02-03T06:47:25;1.87;;;1.40;;
2766;SDS011;1391;46.742;11.636;2023-02-03T06:49:52;2.63;;;1.50;;
2766;SDS011;1391;46.742;11.636;2023-02-03T06:52:21;1.50;;;1.30;;
2766;SDS011;1391;46.742;11.636;2023-02-03T06:54:48;1.23;;;1.00;;
2766;SDS011;1391;46.742;11.636;2023-02-03T06:57:15;0.97;;;0.97;;
2766;SDS011;1391;46.742;11.636;2023-02-03T06:59:43;1.53;;;1.40;;
2766;SDS011;1391;46.742;11.636;2023-02-03T07:02:10;2.93;;;1.30;;
2766;SDS011;1391;46.742;11.636;2023-02-03T07:04:38;2.97;;;2.17;;
2766;SDS011;1391;46.742;11.636;2023-02-03T07:07:05;2.40;;;2.20;;
2766;SDS011;1391;46.742;11.636;2023-02-03T07:09:33;1.60;;;1.43;;
2766;SDS011;1391;46.742;11.636;2023-02-03T07:12:01;2.73;;;1.77;;
2766;SDS011;1391;46.742;11.636;2023-02-03T07:14:28;1.80;;;1.40;;
2766;SDS011;1391;46.742;11.636;2023-02-03T07:16:56;1.47;;;1.23;;
2766;SDS011;1391;46.742;11.636;2023-02-03T07:19:23;1.80;;;1.20;;
2766;SDS011;1391;46.742;11.636;2023-02-03T07:21:50;1.70;;;1.30;;
2766;SDS011;1391;46.742;11.636;2023-02-03T07:24:17;1.80;;;1.30;;
2766;SDS011;1391;46.742;11.636;2023-02-03T07:26:46;1.33;;;1.23;;
2766;SDS011;1391;46.742;11.636;2023-02-03T07:29:13;4.00;;;1.63;;
2766;SDS011;1391;46.742;11.636;2023-02-03T07:31:41;3.50;;;2.10;;
2766;SDS011;1391;46.742;11.636;2023-02-03T07:34:08;8.07;;;3.77;;
2766;SDS011;1391;46.742;11.636;2023-02-03T07:36:35;13.07;;;4.90;;
2766;SDS011;1391;46.742;11.636;2023-02-03T07:39:02;9.63;;;4.30;;
2766;SDS011;1391;46.742;11.636;2023-02-03T07:41:30;5.37;;;3.57;;
2766;SDS011;1391;46.742;11.636;2023-02-03T07:43:58;10.20;;;4.77;;
2766;SDS011;1391;46.742;11.636;2023-02-03T07:46:26;7.43;;;4.07;;
2766;SDS011;1391;46.742;11.636;2023-02-03T07:48:53;6.97;;;4.10;;
2766;SDS011;1391;46.742;11.636;2023-02-03T07:51:20;9.17;;;4.33;;
2766;SDS011;1391;46.742;11.636;2023-02-03T07:53:47;9.93;;;5.23;;
2766;SDS011;1391;46.742;11.636;2023-02-03T07:56:14;8.20;;;4.70;;
2766;SDS011;1391;46.742;11.636;2023-02-03T07:58:42;10.40;;;4.57;;
2766;SDS011;1391;46.742;11.636;2023-02-03T08:01:13;10.57;;;5.10;;
2766;SDS011;1391;46.742;11.636;2023-02-03T08:03:41;12.60;;;5.73;;
2766;SDS011;1391;46.742;11.636;2023-02-03T08:06:09;9.13;;;6.40;;
2766;SDS011;1391;46.742;11.636;2023-02-03T08:08:36;12.33;;;6.27;;
2766;SDS011;1391;46.742;11.636;2023-02-03T08:11:05;12.63;;;5.43;;
2766;SDS011;1391;46.742;11.636;2023-02-03T08:13:32;7.47;;;4.70;;
2766;SDS011;1391;46.742;11.636;2023-02-03T08:16:00;11.63;;;5.40;;
2766;SDS011;1391;46.742;11.636;2023-02-03T08:18:29;7.30;;;5.53;;
2766;SDS011;1391;46.742;11.636;2023-02-03T08:20:56;6.90;;;3.70;;
2766;SDS011;1391;46.742;11.636;2023-02-03T08:23:24;6.10;;;3.70;;
2766;SDS011;1391;46.742;11.636;2023-02-03T08:25:52;4.20;;;3.47;;
2766;SDS011;1391;46.742;11.636;2023-02-03T08:28:19;6.70;;;3.80;;
2766;SDS011;1391;46.742;11.636;2023-02-03T08:30:47;6.33;;;4.50;;
2766;SDS011;1391;46.742;11.636;2023-02-03T08:33:14;13.63;;;4.23;;
2766;SDS011;1391;46.742;11.636;2023-02-03T08:35:45;8.97;;;4.00;;
2766;SDS011;1391;46.742;11.636;2023-02-03T08:38:13;11.63;;;3.70;;
2766;SDS011;1391;46.742;11.636;2023-02-03T08:40:40;11.60;;;4.10;;
2766;SDS011;1391;46.742;11.636;2023-02-03T08:43:08;4.90;;;3.20;;
2766;SDS011;1391;46.742;11.636;2023-02-03T08:45:35;5.00;;;3.00;;
2766;SDS011;1391;46.742;11.636;2023-02-03T08:48:02;8.73;;;3.10;;
2766;SDS011;1391;46.742;11.636;2023-02-03T08:50:29;6.10;;;3.50;;
2766;SDS011;1391;46.742;11.636;2023-02-03T08:53:04;6.10;;;3.40;;
2766;SDS011;1391;46.742;11.636;2023-02-03T08:55:37;8.27;;;3.50;;
2766;SDS011;1391;46.742;11.636;2023-02-03T08:58:05;6.03;;;3.53;;
2766;SDS011;1391;46.742;11.636;2023-02-03T09:00:32;9.70;;;3.17;;
2766;SDS011;1391;46.742;11.636;2023-02-03T09:02:59;7.47;;;3.17;;
2766;SDS011;1391;46.742;11.636;2023-02-03T09:05:28;11.27;;;3.90;;
2766;SDS011;1391;46.742;11.636;2023-02-03T09:07:55;6.70;;;3.43;;
2766;SDS011;1391;46.742;11.636;2023-02-03T09:10:24;10.03;;;4.17;;
2766;SDS011;1391;46.742;11.636;2023-02-03T09:12:51;9.33;;;4.30;;
2766;SDS011;1391;46.742;11.636;2023-02-03T09:15:18;8.67;;;4.67;;
2766;SDS011;1391;46.742;11.636;2023-02-03T09:17:46;7.87;;;4.30;;
2766;SDS011;1391;46.742;11.636;2023-02-03T09:20:13;10.17;;;4.67;;
2766;SDS011;1391;46.742;11.636;2023-02-03T09:22:40;7.03;;;3.57;;
2766;SDS011;1391;46.742;11.636;2023-02-03T09:25:07;5.60;;;2.63;;
2766;SDS011;1391;46.742;11.636;2023-02-03T09:27:36;4.03;;;2.77;;
2766;SDS011;1391;46.742;11.636;2023-02-03T09:30:03;12.13;;;4.50;;
2766;SDS011;1391;46.742;11.636;2023-02-03T09:32:32;5.17;;;3.10;;
2766;SDS011;1391;46.742;11.636;2023-02-03T09:34:59;6.53;;;3.10;;
2766;SDS011;1391;46.742;11.636;2023-02-03T09:37:28;7.03;;;3.53;;
2766;SDS011;1391;46.742;11.636;2023-02-03T09:39:55;6.53;;;3.53;;
2766;SDS011;1391;46.742;11.636;2023-02-03T09:45:24;6.87;;;3.93;;
2766;SDS011;1391;46.742;11.636;2023-02-03T09:47:56;12.20;;;3.83;;
2766;SDS011;1391;46.742;11.636;2023-02-03T09:50:29;11.17;;;4.00;;
2766;SDS011;1391;46.742;11.636;2023-02-03T09:53:01;15.40;;;4.10;;
2766;SDS011;1391;46.742;11.636;2023-02-03T09:55:37;13.67;;;3.83;;
2766;SDS011;1391;46.742;11.636;2023-02-03T09:58:09;10.93;;;4.20;;
2766;SDS011;1391;46.742;11.636;2023-02-03T10:00:40;11.43;;;3.90;;
2766;SDS011;1391;46.742;11.636;2023-02-03T10:03:13;10.33;;;3.73;;
2766;SDS011;1391;46.742;11.636;2023-02-03T10:05:56;19.77;;;5.00;;
2766;SDS011;1391;46.742;11.636;2023-02-03T10:08:44;8.83;;;3.43;;
2766;SDS011;1391;46.742;11.636;2023-02-03T10:11:49;7.77;;;3.40;;
2766;SDS011;1391;46.742;11.636;2023-02-03T10:14:38;5.30;;;2.63;;
2766;SDS011;1391;46.742;11.636;2023-02-03T10:17:23;5.57;;;2.83;;
2766;SDS011;1391;46.742;11.636;2023-02-03T10:19:56;9.77;;;3.10;;
2766;SDS011;1391;46.742;11.636;2023-02-03T10:22:30;6.77;;;3.57;;
2766;SDS011;1391;46.742;11.636;2023-02-03T10:25:10;8.93;;;3.57;;
2766;SDS011;1391;46.742;11.636;2023-02-03T10:27:49;14.50;;;4.23;;
2766;SDS011;1391;46.742;11.636;2023-02-03T10:30:20;11.67;;;4.90;;
2766;SDS011;1391;46.742;11.636;2023-02-03T10:32:50;6.10;;;3.53;;
2766;SDS011;1391;46.742;11.636;2023-02-03T10:35:20;6.53;;;3.40;;
2766;SDS011;1391;46.742;11.636;2023-02-03T10:37:53;7.80;;;3.30;;
2766;SDS011;1391;46.742;11.636;2023-02-03T10:40:24;8.47;;;3.30;;
2766;SDS011;1391;46.742;11.636;2023-02-03T10:42:53;5.53;;;2.90;;
2766;SDS011;1391;46.742;11.636;2023-02-03T10:45:40;8.23;;;2.40;;
2766;SDS011;1391;46.742;11.636;2023-02-03T10:48:10;8.53;;;2.60;;
2766;SDS011;1391;46.742;11.636;2023-02-03T10:50:43;6.27;;;2.60;;
2766;SDS011;1391;46.742;11.636;2023-02-03T10:53:21;12.00;;;2.83;;
2766;SDS011;1391;46.742;11.636;2023-02-03T10:55:59;7.07;;;3.00;;
2766;SDS011;1391;46.742;11.636;2023-02-03T10:58:29;5.93;;;2.87;;
2766;SDS011;1391;46.742;11.636;2023-02-03T11:01:05;5.10;;;2.80;;
2766;SDS011;1391;46.742;11.636;2023-02-03T11:03:35;4.37;;;3.00;;
2766;SDS011;1391;46.742;11.636;2023-02-03T11:06:08;4.17;;;2.17;;
2766;SDS011;1391;46.742;11.636;2023-02-03T11:08:38;2.87;;;2.00;;
2766;SDS011;1391;46.742;11.636;2023-02-03T11:11:08;4.57;;;2.60;;
2766;SDS011;1391;46.742;11.636;2023-02-03T11:13:39;4.87;;;2.60;;
2766;SDS011;1391;46.742;11.636;2023-02-03T11:16:10;4.67;;;2.10;;
2766;SDS011;1391;46.742;11.636;2023-02-03T11:18:43;7.40;;;1.77;;
2766;SDS011;1391;46.742;11.636;2023-02-03T11:21:24;2.73;;;1.60;;
2766;SDS011;1391;46.742;11.636;2023-02-03T11:24:05;4.07;;;1.40;;
2766;SDS011;1391;46.742;11.636;2023-02-03T11:26:39;2.83;;;1.70;;
2766;SDS011;1391;46.742;11.636;2023-02-03T11:29:14;3.17;;;1.50;;
2766;SDS011;1391;46.742;11.636;2023-02-03T11:31:47;1.43;;;1.20;;
2766;SDS011;1391;46.742;11.636;2023-02-03T11:34:18;2.27;;;1.00;;
2766;SDS011;1391;46.742;11.636;2023-02-03T11:36:50;4.27;;;1.27;;
2766;SDS011;1391;46.742;11.636;2023-02-03T11:39:27;2.83;;;1.20;;
2766;SDS011;1391;46.742;11.636;2023-02-03T11:41:59;3.67;;;1.90;;
2766;SDS011;1391;46.742;11.636;2023-02-03T11:44:27;8.87;;;2.87;;
2766;SDS011;1391;46.742;11.636;2023-02-03T11:46:59;3.63;;;1.23;;
2766;SDS011;1391;46.742;11.636;2023-02-03T11:52:49;4.10;;;1.20;;
2766;SDS011;1391;46.742;11.636;2023-02-03T11:55:29;2.13;;;1.23;;
2766;SDS011;1391;46.742;11.636;2023-02-03T12:01:18;3.83;;;1.60;;
2766;SDS011;1391;46.742;11.636;2023-02-03T12:04:05;2.63;;;1.37;;
2766;SDS011;1391;46.742;11.636;2023-02-03T12:07:07;2.37;;;1.53;;
2766;SDS011;1391;46.742;11.636;2023-02-03T12:09:57;1.43;;;1.33;;
2766;SDS011;1391;46.742;11.636;2023-02-03T12:12:36;1.43;;;1.33;;
2766;SDS011;1391;46.742;11.636;2023-02-03T12:15:27;4.57;;;1.10;;
2766;SDS011;1391;46.742;11.636;2023-02-03T12:18:20;2.00;;;1.50;;
2766;SDS011;1391;46.742;11.636;2023-02-03T12:21:11;4.60;;;3.27;;
2766;SDS011;1391;46.742;11.636;2023-02-03T12:23:59;2.03;;;1.50;;
2766;SDS011;1391;46.742;11.636;2023-02-03T12:26:37;2.77;;;1.00;;
2766;SDS011;1391;46.742;11.636;2023-02-03T12:29:15;1.13;;;0.63;;
2766;SDS011;1391;46.742;11.636;2023-02-03T12:31:47;5.87;;;1.00;;
2766;SDS011;1391;46.742;11.636;2023-02-03T12:34:31;1.70;;;0.93;;
2766;SDS011;1391;46.742;11.636;2023-02-03T12:37:04;4.17;;;2.30;;
2766;SDS011;1391;46.742;11.636;2023-02-03T12:39:37;4.13;;;2.40;;
2766;SDS011;1391;46.742;11.636;2023-02-03T12:42:11;4.90;;;3.50;;
2766;SDS011;1391;46.742;11.636;2023-02-03T12:44:44;4.60;;;2.40;;
2766;SDS011;1391;46.742;11.636;2023-02-03T12:47:19;4.10;;;1.80;;
2766;SDS011;1391;46.742;11.636;2023-02-03T12:49:53;1.00;;;0.90;;
2766;SDS011;1391;46.742;11.636;2023-02-03T12:52:26;1.80;;;1.30;;
2766;SDS011;1391;46.742;11.636;2023-02-03T12:55:03;1.43;;;1.00;;
2766;SDS011;1391;46.742;11.636;2023-02-03T12:57:43;3.60;;;1.90;;
2766;SDS011;1391;46.742;11.636;2023-02-03T13:00:20;5.50;;;1.40;;
2766;SDS011;1391;46.742;11.636;2023-02-03T13:03:06;3.23;;;1.23;;
2766;SDS011;1391;46.742;11.636;2023-02-03T13:05:44;1.23;;;0.80;;
2766;SDS011;1391;46.742;11.636;2023-02-03T13:08:22;0.87;;;0.87;;
2766;SDS011;1391;46.742;11.636;2023-02-03T13:10:56;0.80;;;0.60;;
2766;SDS011;1391;46.742;11.636;2023-02-03T13:13:38;1.33;;;0.90;;
2766;SDS011;1391;46.742;11.636;2023-02-03T13:16:14;4.27;;;1.47;;
2766;SDS011;1391;46.742;11.636;2023-02-03T13:18:46;7.30;;;1.60;;
2766;SDS011;1391;46.742;11.636;2023-02-03T13:21:19;1.40;;;1.20;;
2766;SDS011;1391;46.742;11.636;2023-02-03T13:23:49;4.27;;;2.20;;
2766;SDS011;1391;46.742;11.636;2023-02-03T13:26:20;8.77;;;6.10;;
2766;SDS011;1391;46.742;11.636;2023-02-03T13:32:17;3.93;;;3.53;;
2766;SDS011;1391;46.742;11.636;2023-02-03T13:41:21;2.43;;;0.60;;
2766;SDS011;1391;46.742;11.636;2023-02-03T13:43:57;2.07;;;0.70;;
2766;SDS011;1391;46.742;11.636;2023-02-03T13:46:25;8.00;;;0.70;;
2766;SDS011;1391;46.742;11.636;2023-02-03T13:48:57;1.13;;;0.67;;
2766;SDS011;1391;46.742;11.636;2023-02-03T13:51:28;0.90;;;0.53;;
2766;SDS011;1391;46.742;11.636;2023-02-03T13:54:01;4.00;;;1.07;;
2766;SDS011;1391;46.742;11.636;2023-02-03T13:56:32;2.83;;;2.13;;
2766;SDS011;1391;46.742;11.636;2023-02-03T13:59:02;2.13;;;1.50;;
2766;SDS011;1391;46.742;11.636;2023-02-03T14:01:32;3.33;;;1.80;;
2766;SDS011;1391;46.742;11.636;2023-02-03T14:04:03;4.57;;;3.13;;
2766;SDS011;1391;46.742;11.636;2023-02-03T14:09:40;3.23;;;2.00;;
2766;SDS011;1391;46.742;11.636;2023-02-03T14:12:15;11.60;;;5.67;;
2766;SDS011;1391;46.742;11.636;2023-02-03T14:14:56;6.10;;;4.73;;
2766;SDS011;1391;46.742;11.636;2023-02-03T14:23:40;5.57;;;1.40;;
2766;SDS011;1391;46.742;11.636;2023-02-03T14:26:21;2.60;;;0.77;;
2766;SDS011;1391;46.742;11.636;2023-02-03T14:28:57;3.37;;;1.23;;
2766;SDS011;1391;46.742;11.636;2023-02-03T14:31:26;3.40;;;1.40;;
2766;SDS011;1391;46.742;11.636;2023-02-03T14:33:54;4.47;;;2.43;;
2766;SDS011;1391;46.742;11.636;2023-02-03T14:36:41;3.60;;;1.50;;
2766;SDS011;1391;46.742;11.636;2023-02-03T14:52:37;1.80;;;1.40;;
2766;SDS011;1391;46.742;11.636;2023-02-03T14:55:32;7.77;;;3.47;;
2766;SDS011;1391;46.742;11.636;2023-02-03T14:58:18;2.97;;;1.97;;
2766;SDS011;1391;46.742;11.636;2023-02-03T15:00:51;10.80;;;6.57;;
2766;SDS011;1391;46.742;11.636;2023-02-03T15:03:23;3.80;;;2.33;;
2766;SDS011;1391;46.742;11.636;2023-02-03T15:05:55;1.70;;;1.60;;
2766;SDS011;1391;46.742;11.636;2023-02-03T15:11:27;3.83;;;1.57;;
2766;SDS011;1391;46.742;11.636;2023-02-03T15:16:46;1.93;;;1.40;;
2766;SDS011;1391;46.742;11.636;2023-02-03T15:19:19;2.43;;;1.20;;
2766;SDS011;1391;46.742;11.636;2023-02-03T15:21:50;1.90;;;0.90;;
2766;SDS011;1391;46.742;11.636;2023-02-03T15:24:19;3.17;;;0.93;;
2766;SDS011;1391;46.742;11.636;2023-02-03T15:26:50;5.33;;;1.57;;
2766;SDS011;1391;46.742;11.636;2023-02-03T15:29:28;1.73;;;1.30;;
2766;SDS011;1391;46.742;11.636;2023-02-03T15:32:04;6.97;;;3.33;;
2766;SDS011;1391;46.742;11.636;2023-02-03T15:34:38;2.97;;;1.73;;
2766;SDS011;1391;46.742;11.636;2023-02-03T15:37:11;3.73;;;1.60;;
2766;SDS011;1391;46.742;11.636;2023-02-03T15:39:50;13.77;;;5.80;;
2766;SDS011;1391;46.742;11.636;2023-02-03T15:42:27;8.73;;;4.90;;
2766;SDS011;1391;46.742;11.636;2023-02-03T15:45:06;3.23;;;2.20;;
2766;SDS011;1391;46.742;11.636;2023-02-03T15:47:46;3.53;;;2.30;;
2766;SDS011;1391;46.742;11.636;2023-02-03T15:50:22;5.03;;;2.33;;
2766;SDS011;1391;46.742;11.636;2023-02-03T15:52:56;6.73;;;2.27;;
2766;SDS011;1391;46.742;11.636;2023-02-03T15:55:30;7.87;;;3.97;;
2766;SDS011;1391;46.742;11.636;2023-02-03T15:58:01;8.17;;;1.60;;
2766;SDS011;1391;46.742;11.636;2023-02-03T16:00:32;2.30;;;0.90;;
2766;SDS011;1391;46.742;11.636;2023-02-03T16:03:04;4.03;;;1.07;;
2766;SDS011;1391;46.742;11.636;2023-02-03T16:05:41;8.57;;;4.70;;
2766;SDS011;1391;46.742;11.636;2023-02-03T16:08:34;3.17;;;1.10;;
2766;SDS011;1391;46.742;11.636;2023-02-03T16:11:25;2.57;;;0.53;;
2766;SDS011;1391;46.742;11.636;2023-02-03T16:13:59;0.90;;;0.90;;
2766;SDS011;1391;46.742;11.636;2023-02-03T16:16:31;4.10;;;1.20;;
2766;SDS011;1391;46.742;11.636;2023-02-03T16:19:03;3.90;;;1.50;;
2766;SDS011;1391;46.742;11.636;2023-02-03T16:21:42;2.70;;;1.20;;
2766;SDS011;1391;46.742;11.636;2023-02-03T16:24:36;3.77;;;1.67;;